Time;durP1;ratioP1;P1;durP2;ratioP2;P2;SDS_P1;SDS_P2;PMS_P1;PMS_P2;Temp;Humidity;BMP_temperature;BMP_pressure;BME280_temperature;BME280_humidity;BME280_pressure;Samples;Min_cycle;Max_cycle;Signal;HPM_P1;HPM_P2
2022/12/18 00:01:15;;;;;;;109.50;33.33;;;;;;;-2.19;100.00;102857.63;4971763;28;20019;-62
2022/12/18 00:03:40;;;;;;;93.35;29.88;;;;;;;-2.20;100.00;102864.47;4972698;28;20125;-59
2022/12/18 00:06:05;;;;;;;99.93;32.72;;;;;;;-2.33;100.00;102850.06;4972380;28;20062;-62
2022/12/18 00:08:31;;;;;;;106.53;33.03;;;;;;;-2.26;100.00;102840.91;4972586;28;20023;-62
2022/12/18 00:11:06;;;;;;;104.75;32.35;;;;;;;-2.17;100.00;102832.75;4957094;28;20070;-62
2022/12/18 00:13:32;;;;;;;111.18;34.53;;;;;;;-2.22;100.00;102834.22;4952738;29;20038;-64
2022/12/18 00:16:04;;;;;;;106.80;32.35;;;;;;;-2.38;100.00;102835.13;4950674;29;20043;-61
2022/12/18 00:18:30;;;;;;;104.95;32.75;;;;;;;-2.33;100.00;102837.13;4952931;29;20031;-61
2022/12/18 00:20:58;;;;;;;98.70;33.03;;;;;;;-2.34;100.00;102843.13;4952794;29;20355;-62
2022/12/18 00:23:24;;;;;;;105.15;34.83;;;;;;;-2.32;100.00;102841.47;4952639;29;20046;-65
2022/12/18 00:25:49;;;;;;;104.93;33.58;;;;;;;-2.32;100.00;102840.63;4952859;29;20027;-64
2022/12/18 00:28:14;;;;;;;115.50;35.13;;;;;;;-2.32;100.00;102840.63;4952519;29;20062;-66
2022/12/18 00:30:40;;;;;;;108.03;33.60;;;;;;;-2.36;100.00;102847.31;4963573;28;20612;-63
2022/12/18 00:33:05;;;;;;;106.93;33.10;;;;;;;-2.36;100.00;102838.66;4971393;28;20037;-63
2022/12/18 00:35:31;;;;;;;105.47;34.05;;;;;;;-2.30;100.00;102836.41;4970946;28;20110;-60
2022/12/18 00:37:57;;;;;;;98.95;33.55;;;;;;;-2.45;100.00;102839.06;4971691;28;20027;-63
2022/12/18 00:40:22;;;;;;;98.10;32.65;;;;;;;-2.46;100.00;102830.47;4971793;28;21236;-63
2022/12/18 00:42:56;;;;;;;100.38;34.33;;;;;;;-2.56;100.00;102829.06;4972115;28;20093;-63
2022/12/18 00:45:29;;;;;;;106.35;31.23;;;;;;;-2.44;100.00;102835.69;4970861;28;20089;-59
2022/12/18 00:47:55;;;;;;;86.32;30.13;;;;;;;-2.46;100.00;102832.13;4971486;28;20081;-65
2022/12/18 00:50:21;;;;;;;94.70;31.08;;;;;;;-2.53;100.00;102833.50;4971826;28;20055;-57
2022/12/18 00:52:47;;;;;;;91.70;29.77;;;;;;;-2.49;100.00;102844.88;4972163;28;20050;-65
2022/12/18 00:55:13;;;;;;;116.68;31.65;;;;;;;-2.61;100.00;102843.44;4971757;28;20428;-62
2022/12/18 00:57:38;;;;;;;83.82;27.75;;;;;;;-2.51;100.00;102852.53;4970598;28;20037;-63
2022/12/18 01:00:05;;;;;;;100.38;32.17;;;;;;;-2.56;100.00;102852.31;4971014;28;20509;-63
2022/12/18 01:02:31;;;;;;;87.32;31.23;;;;;;;-2.53;100.00;102841.25;4970878;28;20027;-63
2022/12/18 01:04:56;;;;;;;86.68;30.73;;;;;;;-2.48;100.00;102844.06;4971177;28;20023;-63
2022/12/18 01:07:22;;;;;;;99.68;30.95;;;;;;;-2.68;100.00;102838.75;4971407;28;20035;-62
2022/12/18 01:09:47;;;;;;;100.07;32.38;;;;;;;-2.74;100.00;102841.88;4971579;28;20033;-62
2022/12/18 01:12:12;;;;;;;113.47;34.55;;;;;;;-2.63;100.00;102857.94;4953616;28;20425;-63
2022/12/18 01:14:38;;;;;;;118.75;35.88;;;;;;;-2.71;100.00;102851.50;4970712;28;20034;-62
2022/12/18 01:17:03;;;;;;;114.97;32.33;;;;;;;-2.74;100.00;102848.75;4968844;28;20545;-63
2022/12/18 01:19:29;;;;;;;114.90;31.17;;;;;;;-2.79;100.00;102851.94;4969809;28;20031;-62
2022/12/18 01:21:54;;;;;;;104.47;33.15;;;;;;;-2.85;100.00;102856.78;4970210;28;20027;-64
2022/12/18 01:24:20;;;;;;;95.63;31.50;;;;;;;-2.82;100.00;102844.06;4971689;28;20030;-63
2022/12/18 01:26:45;;;;;;;89.47;31.00;;;;;;;-2.97;100.00;102843.22;4971059;28;20039;-59
2022/12/18 01:29:10;;;;;;;85.15;30.08;;;;;;;-2.80;100.00;102852.75;4970370;28;20035;-67
2022/12/18 01:31:36;;;;;;;94.97;30.88;;;;;;;-2.88;100.00;102854.03;4970747;28;20074;-64
2022/12/18 01:34:03;;;;;;;105.25;33.15;;;;;;;-2.91;100.00;102851.31;4971167;28;20026;-58
2022/12/18 01:36:33;;;;;;;97.93;31.98;;;;;;;-2.95;100.00;102864.84;4971425;28;20030;-64
2022/12/18 01:39:00;;;;;;;92.57;29.48;;;;;;;-3.02;100.00;102870.44;4953522;28;20033;-63
2022/12/18 01:42:01;;;;;;;93.85;31.73;;;;;;;-2.95;100.00;102868.28;4971230;28;20026;-63
2022/12/18 01:44:50;;;;;;;89.85;31.00;;;;;;;-2.94;100.00;102876.94;4969190;28;20035;-64
2022/12/18 01:47:31;;;;;;;85.38;27.83;;;;;;;-2.92;100.00;102877.91;4970930;28;20041;-65
2022/12/18 01:49:58;;;;;;;84.63;29.52;;;;;;;-2.90;100.00;102875.38;4969636;28;20027;-63
2022/12/18 01:52:26;;;;;;;91.72;30.05;;;;;;;-2.95;100.00;102883.75;4969827;28;20035;-63
2022/12/18 01:54:52;;;;;;;101.47;31.30;;;;;;;-2.83;100.00;102873.22;4953423;28;20031;-63
2022/12/18 01:57:17;;;;;;;92.20;30.33;;;;;;;-2.84;100.00;102884.38;4971302;28;20037;-64
2022/12/18 01:59:45;;;;;;;84.70;29.50;;;;;;;-2.88;100.00;102887.59;4952965;28;20030;-63
2022/12/18 02:02:11;;;;;;;92.13;29.85;;;;;;;-3.02;100.00;102883.34;4953212;28;20026;-63
2022/12/18 02:04:36;;;;;;;82.75;27.15;;;;;;;-2.88;100.00;102884.13;4952240;28;20569;-63
2022/12/18 02:07:17;;;;;;;85.18;28.58;;;;;;;-2.83;100.00;102877.53;4970899;28;20035;-64
2022/12/18 02:09:59;;;;;;;92.63;29.00;;;;;;;-2.90;100.00;102885.69;4969881;28;20035;-63
2022/12/18 02:12:28;;;;;;;84.32;28.88;;;;;;;-2.97;100.00;102882.81;4952807;28;20101;-63
2022/12/18 02:15:13;;;;;;;;;;;;;;;-2.95;100.00;102882.91;4952840;28;20054;-62
2022/12/18 02:17:45;;;;;;;81.32;25.88;;;;;;;-2.93;100.00;102881.28;4970010;28;19918;-64
2022/12/18 02:20:20;;;;;;;88.13;27.38;;;;;;;-2.97;100.00;102881.91;4970947;28;20916;-62
2022/12/18 02:23:12;;;;;;;86.43;28.15;;;;;;;-3.06;100.00;102874.56;4953663;28;20027;-62
2022/12/18 02:25:52;;;;;;;86.88;27.95;;;;;;;-3.21;100.00;102872.91;4953399;28;20056;-62
2022/12/18 02:28:20;;;;;;;87.97;28.52;;;;;;;-3.22;100.00;102865.09;4953627;28;20030;-58
2022/12/18 02:30:47;;;;;;;84.38;28.40;;;;;;;-3.31;100.00;102868.03;4985855;28;20030;-56
2022/12/18 02:33:13;;;;;;;92.70;29.45;;;;;;;-3.38;100.00;102876.19;4975835;28;20093;-55
2022/12/18 02:35:40;;;;;;;91.45;30.23;;;;;;;-3.25;100.00;102878.66;4975341;28;20026;-63
2022/12/18 02:38:06;;;;;;;87.90;29.83;;;;;;;-3.26;100.00;102876.91;4975655;28;20027;-57
2022/12/18 02:40:31;;;;;;;79.22;27.35;;;;;;;-3.38;100.00;102871.03;4993929;28;20503;-63
2022/12/18 02:43:12;;;;;;;83.22;29.20;;;;;;;-3.46;100.00;102863.75;4993572;28;20034;-63
2022/12/18 02:45:53;;;;;;;82.25;26.85;;;;;;;-3.53;100.00;102853.91;4992876;28;20353;-63
2022/12/18 02:48:22;;;;;;;75.20;28.20;;;;;;;-3.51;100.00;102859.16;4976137;28;20049;-63
2022/12/18 02:50:55;;;;;;;78.72;25.20;;;;;;;-3.45;100.00;102849.19;4976437;28;20101;-62
2022/12/18 02:53:52;;;;;;;75.72;28.55;;;;;;;-3.48;100.00;102843.84;4993395;28;20026;-57
2022/12/18 02:56:30;;;;;;;66.43;26.30;;;;;;;-3.66;100.00;102836.84;4963275;28;20042;-64
2022/12/18 02:59:01;;;;;;;74.97;27.10;;;;;;;-3.79;100.00;102844.69;4972697;28;20058;-60
2022/12/18 03:01:42;;;;;;;73.13;25.77;;;;;;;-3.93;100.00;102837.03;4955964;28;20050;-62
2022/12/18 03:04:11;;;;;;;69.68;25.08;;;;;;;-3.88;100.00;102832.16;4955189;28;20081;-62
2022/12/18 03:06:40;;;;;;;68.72;25.48;;;;;;;-3.83;100.00;102830.72;4973643;28;20117;-64
2022/12/18 03:09:10;;;;;;;76.75;26.25;;;;;;;-3.90;100.00;102821.75;4940099;28;20026;-64
2022/12/18 03:14:28;;;;;;;71.13;25.50;;;;;;;-3.81;100.00;102814.56;4958494;28;20046;-63
2022/12/18 03:16:58;;;;;;;74.45;27.95;;;;;;;-3.97;100.00;102811.91;4956355;28;20484;-63
2022/12/18 03:19:27;;;;;;;76.28;26.65;;;;;;;-4.10;100.00;102811.19;4973701;28;20050;-63
2022/12/18 03:21:56;;;;;;;81.50;28.80;;;;;;;-4.08;100.00;102819.00;4955934;28;20026;-64
2022/12/18 03:24:22;;;;;;;85.43;29.30;;;;;;;-4.09;100.00;102806.94;4956178;28;20031;-62
2022/12/18 03:26:52;;;;;;;90.88;28.55;;;;;;;-4.02;100.00;102814.22;4955407;28;20031;-62
2022/12/18 03:29:27;;;;;;;80.63;27.17;;;;;;;-4.05;100.00;102803.72;4955272;28;20103;-63
2022/12/18 03:31:56;;;;;;;88.20;28.90;;;;;;;-4.01;100.00;102804.81;4954444;28;20093;-63
2022/12/18 03:34:26;;;;;;;77.82;26.00;;;;;;;-3.99;100.00;102808.34;4939490;28;20381;-62
2022/12/18 03:36:52;;;;;;;80.18;27.17;;;;;;;-4.01;100.00;102817.69;4955854;28;20027;-64
2022/12/18 03:39:17;;;;;;;81.25;27.00;;;;;;;-4.04;100.00;102817.50;4956263;28;20030;-57
2022/12/18 03:42:08;;;;;;;72.50;27.52;;;;;;;-4.12;100.00;102812.75;4955229;28;20106;-63
2022/12/18 03:44:41;;;;;;;64.05;24.45;;;;;;;-4.11;100.00;102819.72;4939116;28;20425;-60
2022/12/18 03:47:13;;;;;;;70.68;25.38;;;;;;;-4.04;100.00;102809.78;4973000;28;20465;-62
2022/12/18 03:49:46;;;;;;;67.85;25.33;;;;;;;-4.24;100.00;102812.91;4955778;28;20481;-62
2022/12/18 03:52:52;;;;;;;75.38;25.90;;;;;;;-4.21;100.00;102792.50;4972950;28;20033;-62
2022/12/18 03:55:18;;;;;;;72.35;25.60;;;;;;;-4.22;100.00;102805.28;4908445;29;20123;-63
2022/12/18 03:57:44;;;;;;;73.20;25.70;;;;;;;-4.27;100.00;102796.41;4929462;29;20050;-63
2022/12/18 04:00:12;;;;;;;72.35;26.40;;;;;;;-4.33;100.00;102795.25;4942229;28;20027;-63
2022/12/18 04:02:44;;;;;;;71.87;25.57;;;;;;;-4.29;100.00;102792.84;4955138;28;20073;-62
2022/12/18 04:05:10;;;;;;;68.18;26.63;;;;;;;-4.35;100.00;102788.25;4938062;28;20934;-62
2022/12/18 04:07:36;;;;;;;69.85;26.95;;;;;;;-4.33;100.00;102790.09;4971912;28;20027;-62
2022/12/18 04:10:04;;;;;;;68.45;26.02;;;;;;;-4.34;100.00;102800.31;4955306;28;20465;-62
2022/12/18 04:12:30;;;;;;;63.03;24.53;;;;;;;-4.35;100.00;102804.59;4973160;28;20031;-61
2022/12/18 04:14:55;;;;;;;73.55;25.48;;;;;;;-4.44;100.00;102804.94;4971808;28;20779;-62
2022/12/18 04:17:21;;;;;;;65.93;26.52;;;;;;;-4.49;100.00;102802.88;4972519;28;20041;-59
2022/12/18 04:19:46;;;;;;;67.53;25.75;;;;;;;-4.55;100.00;102805.06;4972507;28;20030;-60
2022/12/18 04:22:12;;;;;;;72.38;25.08;;;;;;;-4.63;100.00;102802.03;4972628;28;20474;-63
2022/12/18 04:24:37;;;;;;;75.40;26.42;;;;;;;-4.67;100.00;102805.22;4972572;28;20042;-63
2022/12/18 04:27:03;;;;;;;61.75;24.40;;;;;;;-4.66;100.00;102802.75;4960194;28;20035;-63
2022/12/18 04:29:28;;;;;;;63.42;25.02;;;;;;;-4.71;100.00;102804.13;4952333;28;20058;-59
2022/12/18 04:31:54;;;;;;;61.97;25.42;;;;;;;-4.76;100.00;102806.41;4952122;29;20023;-62
2022/12/18 04:34:19;;;;;;;67.10;24.75;;;;;;;-4.83;100.00;102815.44;4952999;29;20151;-63
2022/12/18 04:36:45;;;;;;;67.18;25.25;;;;;;;-4.89;100.00;102812.50;4953194;29;20031;-63
2022/12/18 04:39:10;;;;;;;60.55;22.83;;;;;;;-4.92;100.00;102820.03;4935155;29;20076;-53
2022/12/18 04:41:35;;;;;;;64.45;22.80;;;;;;;-5.01;100.00;102817.75;4953133;29;20046;-63
2022/12/18 04:44:01;;;;;;;59.53;23.02;;;;;;;-5.06;100.00;102821.72;4951699;29;20074;-63
2022/12/18 04:46:26;;;;;;;63.75;24.15;;;;;;;-5.11;100.00;102826.59;4952696;29;20027;-63
2022/12/18 04:48:51;;;;;;;62.35;23.52;;;;;;;-5.13;100.00;102820.44;4952531;29;20030;-60
2022/12/18 04:51:17;;;;;;;62.15;23.48;;;;;;;-5.16;100.00;102820.25;4952703;29;20031;-63
2022/12/18 04:53:42;;;;;;;60.97;23.40;;;;;;;-5.21;100.00;102817.38;4934839;28;20047;-64
2022/12/18 04:56:14;;;;;;;55.90;23.40;;;;;;;-5.22;100.00;102819.88;4971920;28;20023;-64
2022/12/18 04:58:40;;;;;;;58.90;24.80;;;;;;;-5.22;100.00;102814.72;4970634;28;20027;-60
2022/12/18 05:01:07;;;;;;;61.28;24.23;;;;;;;-5.24;100.00;102811.19;4971072;28;20030;-64
2022/12/18 05:03:33;;;;;;;62.83;23.73;;;;;;;-5.21;100.00;102812.25;4971615;28;20034;-66
2022/12/18 05:05:58;;;;;;;62.05;24.75;;;;;;;-5.20;100.00;102808.88;4971636;28;20034;-63
2022/12/18 05:08:23;;;;;;;65.38;24.08;;;;;;;-5.15;100.00;102801.47;4971820;28;20086;-61
2022/12/18 05:10:49;;;;;;;67.72;25.63;;;;;;;-5.12;100.00;102806.78;4972057;28;20386;-62
2022/12/18 05:13:14;;;;;;;57.50;23.63;;;;;;;-5.08;100.00;102811.34;4971503;28;20102;-63
2022/12/18 05:15:41;;;;;;;64.20;24.75;;;;;;;-5.05;100.00;102817.47;4972692;28;20070;-67
2022/12/18 05:18:07;;;;;;;69.53;25.80;;;;;;;-5.03;100.00;102823.59;4970954;28;20030;-64
2022/12/18 05:20:32;;;;;;;75.85;26.38;;;;;;;-4.94;100.00;102826.72;4953300;28;20037;-62
2022/12/18 05:22:57;;;;;;;65.10;26.55;;;;;;;-4.94;100.00;102821.59;4953466;28;20461;-61
2022/12/18 05:25:23;;;;;;;78.72;26.83;;;;;;;-4.94;100.00;102821.59;4971371;28;20146;-63
2022/12/18 05:27:49;;;;;;;75.15;26.67;;;;;;;-4.87;100.00;102813.50;4971749;28;20129;-63
2022/12/18 05:30:15;;;;;;;71.70;26.42;;;;;;;-4.89;100.00;102815.06;4970444;28;20031;-62
2022/12/18 05:32:40;;;;;;;73.85;26.52;;;;;;;-4.95;100.00;102809.53;4969871;28;20038;-63
2022/12/18 05:35:07;;;;;;;69.65;25.50;;;;;;;-4.98;100.00;102802.53;4971584;28;20089;-63
2022/12/18 05:37:33;;;;;;;74.00;25.67;;;;;;;-4.97;100.00;102806.00;4970925;28;20033;-65
2022/12/18 05:39:58;;;;;;;72.03;27.67;;;;;;;-4.99;100.00;102794.72;4970142;28;20717;-61
2022/12/18 05:42:24;;;;;;;66.45;27.00;;;;;;;-4.98;100.00;102788.78;4969900;28;20038;-62
2022/12/18 05:44:49;;;;;;;69.72;26.75;;;;;;;-5.08;100.00;102789.91;4970441;28;20420;-62
2022/12/18 05:47:14;;;;;;;76.22;28.05;;;;;;;-5.13;100.00;102789.59;4970442;28;20038;-64
2022/12/18 05:49:40;;;;;;;67.57;25.10;;;;;;;-5.14;100.00;102785.25;4972480;28;20026;-58
2022/12/18 05:52:05;;;;;;;71.55;27.17;;;;;;;-5.15;100.00;102791.19;4976386;28;20030;-63
2022/12/18 05:54:30;;;;;;;72.68;25.48;;;;;;;-5.19;100.00;102786.66;4970733;28;20027;-64
2022/12/18 05:56:56;;;;;;;64.55;25.33;;;;;;;-5.23;100.00;102787.25;4970197;28;20477;-64
2022/12/18 05:59:22;;;;;;;68.80;24.13;;;;;;;-5.30;100.00;102790.22;4975732;28;20075;-64
2022/12/18 06:01:47;;;;;;;65.13;25.30;;;;;;;-5.34;100.00;102789.13;4975027;28;20030;-62
2022/12/18 06:04:12;;;;;;;67.85;25.48;;;;;;;-5.35;100.00;102795.97;4976010;28;20486;-63
2022/12/18 06:06:38;;;;;;;63.10;24.20;;;;;;;-5.38;100.00;102789.72;4975168;28;20031;-59
2022/12/18 06:09:08;;;;;;;66.47;25.40;;;;;;;-5.36;100.00;102783.03;4972955;28;20023;-62
2022/12/18 06:11:34;;;;;;;62.15;24.17;;;;;;;-5.37;100.00;102786.38;4969786;28;20393;-63
2022/12/18 06:13:59;;;;;;;72.13;25.58;;;;;;;-5.44;100.00;102779.97;4968324;28;20026;-64
2022/12/18 06:16:25;;;;;;;61.85;25.27;;;;;;;-5.35;100.00;102772.84;4974810;28;20042;-64
2022/12/18 06:18:51;;;;;;;58.38;23.50;;;;;;;-5.39;100.00;102770.84;4973978;28;20037;-62
2022/12/18 06:21:16;;;;;;;60.85;23.25;;;;;;;-5.37;100.00;102765.81;4969546;28;20106;-62
2022/12/18 06:23:41;;;;;;;56.22;22.70;;;;;;;-5.38;100.00;102762.38;4970021;28;20033;-64
2022/12/18 06:26:09;;;;;;;62.28;24.30;;;;;;;-5.41;100.00;102756.13;4969954;28;20429;-65
2022/12/18 06:28:34;;;;;;;56.83;24.02;;;;;;;-5.41;100.00;102754.47;4952499;28;20030;-59
2022/12/18 06:31:00;;;;;;;58.35;25.45;;;;;;;-5.51;100.00;102752.09;4967891;28;20043;-63
2022/12/18 06:33:27;;;;;;;57.15;23.27;;;;;;;-5.46;100.00;102759.31;4970360;28;20022;-63
2022/12/18 06:35:53;;;;;;;63.90;23.95;;;;;;;-5.46;100.00;102756.75;4971242;28;20062;-63
2022/12/18 06:38:19;;;;;;;63.60;23.38;;;;;;;-5.43;100.00;102753.47;4980584;28;20065;-61
2022/12/18 06:40:44;;;;;;;53.00;22.20;;;;;;;-5.43;100.00;102750.91;4973707;28;20026;-62
2022/12/18 06:43:09;;;;;;;52.03;23.23;;;;;;;-5.43;100.00;102743.19;4977723;28;20117;-64
2022/12/18 06:45:35;;;;;;;57.65;22.05;;;;;;;-5.47;100.00;102736.09;4971227;28;20035;-65
2022/12/18 06:48:00;;;;;;;54.78;22.45;;;;;;;-5.42;100.00;102744.94;4970650;28;20091;-62
2022/12/18 06:50:25;;;;;;;52.03;22.05;;;;;;;-5.50;100.00;102736.78;4972567;28;20031;-64
2022/12/18 06:52:51;;;;;;;50.45;21.98;;;;;;;-5.42;100.00;102734.69;4972789;28;20524;-62
2022/12/18 06:55:16;;;;;;;57.08;22.92;;;;;;;-5.51;100.00;102734.13;4971896;28;20031;-62
2022/12/18 06:57:41;;;;;;;54.97;22.63;;;;;;;-5.49;100.00;102729.94;4974447;28;20034;-64
2022/12/18 07:00:07;;;;;;;50.47;22.50;;;;;;;-5.50;100.00;102733.31;4971445;28;20112;-61
2022/12/18 07:02:33;;;;;;;61.83;23.00;;;;;;;-5.47;100.00;102723.22;4974801;28;20027;-65
2022/12/18 07:04:58;;;;;;;47.05;21.80;;;;;;;-5.43;100.00;102720.06;4969330;28;20022;-63
2022/12/18 07:07:24;;;;;;;48.63;20.30;;;;;;;-5.33;100.00;102709.56;4972273;28;20138;-61
2022/12/18 07:09:50;;;;;;;56.53;22.83;;;;;;;-5.45;100.00;102713.91;4955794;28;20030;-64
2022/12/18 07:12:15;;;;;;;48.80;22.55;;;;;;;-5.47;100.00;102715.53;4985105;28;20030;-57
2022/12/18 07:14:41;;;;;;;52.45;19.85;;;;;;;-5.41;100.00;102712.44;4972085;28;20044;-64
2022/12/18 07:17:06;;;;;;;48.45;21.83;;;;;;;-5.38;100.00;102710.06;4976923;28;20141;-63
2022/12/18 07:19:31;;;;;;;42.35;19.98;;;;;;;-5.36;100.00;102708.50;4972902;28;20102;-65
2022/12/18 07:21:57;;;;;;;50.00;21.40;;;;;;;-5.38;100.00;102690.41;4980012;28;20069;-64
2022/12/18 07:24:22;;;;;;;45.20;19.50;;;;;;;-5.32;100.00;102675.34;4976930;28;20069;-63
2022/12/18 07:26:47;;;;;;;42.80;19.63;;;;;;;-5.37;100.00;102676.75;4979869;28;20033;-66
2022/12/18 07:29:13;;;;;;;44.30;19.67;;;;;;;-5.28;100.00;102670.41;4977574;28;20393;-60
2022/12/18 07:31:38;;;;;;;39.60;19.27;;;;;;;-5.26;100.00;102653.41;4980472;28;20446;-62
2022/12/18 07:34:04;;;;;;;39.30;20.67;;;;;;;-5.23;100.00;102656.16;4978743;28;20161;-63
2022/12/18 07:36:29;;;;;;;41.80;19.60;;;;;;;-5.33;100.00;102657.28;4980371;28;20475;-65
2022/12/18 07:38:54;;;;;;;45.90;20.58;;;;;;;-5.26;100.00;102637.97;4979831;28;20359;-64
2022/12/18 07:41:20;;;;;;;46.65;20.42;;;;;;;-5.35;100.00;102634.06;4977691;28;20027;-64
2022/12/18 07:43:46;;;;;;;46.53;21.88;;;;;;;-5.37;100.00;102638.22;4979994;28;20018;-64
2022/12/18 07:46:13;;;;;;;40.15;20.77;;;;;;;-5.23;100.00;102644.22;4980931;28;20049;-64
2022/12/18 07:48:39;;;;;;;42.60;19.58;;;;;;;-5.17;100.00;102655.63;4980864;28;20396;-63
2022/12/18 07:51:06;;;;;;;40.90;19.00;;;;;;;-5.21;100.00;102657.16;4982062;28;20033;-63
2022/12/18 07:53:33;;;;;;;38.88;19.17;;;;;;;-5.08;100.00;102659.63;4980258;28;20382;-64
2022/12/18 07:56:05;;;;;;;36.05;19.02;;;;;;;-5.00;100.00;102666.97;4976200;28;20117;-63
2022/12/18 07:58:30;;;;;;;44.25;20.75;;;;;;;-4.93;100.00;102651.09;4978770;28;20062;-63
2022/12/18 08:01:06;;;;;;;39.25;19.85;;;;;;;-4.92;100.00;102655.44;4976417;28;20084;-64
2022/12/18 08:03:32;;;;;;;37.17;20.40;;;;;;;-5.00;100.00;102657.53;4976455;28;20026;-63
2022/12/18 08:06:06;;;;;;;36.65;19.98;;;;;;;-4.97;100.00;102673.16;4979406;28;20516;-64
2022/12/18 08:08:32;;;;;;;39.08;19.88;;;;;;;-4.85;100.00;102667.00;4978681;28;20030;-67
2022/12/18 08:10:57;;;;;;;34.13;17.63;;;;;;;-4.83;100.00;102663.69;4982539;28;20019;-62
2022/12/18 08:13:23;;;;;;;36.05;19.83;;;;;;;-4.95;100.00;102657.81;4986921;28;20031;-62
2022/12/18 08:16:05;;;;;;;36.65;18.73;;;;;;;-4.97;100.00;102644.88;4985572;28;20022;-64
2022/12/18 08:18:32;;;;;;;37.92;19.05;;;;;;;-4.91;100.00;102646.91;4985057;28;20106;-64
2022/12/18 08:20:57;;;;;;;35.72;18.23;;;;;;;-5.04;100.00;102647.88;4980686;28;20033;-63
2022/12/18 08:23:23;;;;;;;38.45;18.83;;;;;;;-5.02;100.00;102636.00;4982899;28;20022;-63
2022/12/18 08:25:48;;;;;;;35.00;18.52;;;;;;;-4.91;100.00;102636.63;4956998;28;20031;-57
2022/12/18 08:28:14;;;;;;;35.80;19.33;;;;;;;-4.91;100.00;102631.47;4972810;28;20378;-64
2022/12/18 08:30:39;;;;;;;40.45;20.23;;;;;;;-4.86;100.00;102635.22;4975326;28;20107;-63
2022/12/18 08:33:04;;;;;;;36.22;17.73;;;;;;;-4.82;100.00;102632.03;4973292;28;20469;-63
2022/12/18 08:35:30;;;;;;;37.40;19.75;;;;;;;-4.82;100.00;102628.56;4985568;28;20022;-63
2022/12/18 08:37:55;;;;;;;38.58;18.10;;;;;;;-4.77;100.00;102640.03;4977377;28;20162;-62
2022/12/18 08:40:20;;;;;;;34.65;18.30;;;;;;;-4.74;100.00;102640.19;4984521;28;20030;-61
2022/12/18 08:45:30;;;;;;;35.25;18.15;;;;;;;-4.68;100.00;102655.09;4956929;28;20113;-63
2022/12/18 08:47:55;;;;;;;38.47;19.10;;;;;;;-4.66;100.00;102661.25;4972631;28;20117;-64
2022/12/18 08:50:20;;;;;;;36.58;18.10;;;;;;;-4.57;100.00;102672.03;4974656;28;20054;-55
2022/12/18 08:52:46;;;;;;;36.05;18.02;;;;;;;-4.45;100.00;102681.28;4973434;28;20050;-61
2022/12/18 08:55:11;;;;;;;36.47;17.67;;;;;;;-4.31;100.00;102682.97;4972921;28;20157;-63
2022/12/18 08:57:36;;;;;;;33.15;17.25;;;;;;;-4.18;100.00;102678.53;4973454;28;20070;-62
2022/12/18 09:00:03;;;;;;;36.42;18.52;;;;;;;-4.27;100.00;102670.28;4975275;28;20046;-64
2022/12/18 09:02:29;;;;;;;37.03;17.33;;;;;;;-4.20;100.00;102674.97;4976197;28;20109;-63
2022/12/18 09:04:54;;;;;;;32.17;17.48;;;;;;;-4.26;100.00;102679.78;4981604;28;20505;-63
2022/12/18 09:07:19;;;;;;;31.33;16.60;;;;;;;-4.07;100.00;102673.97;4974378;28;20085;-61
2022/12/18 09:09:45;;;;;;;29.10;16.33;;;;;;;-4.04;100.00;102676.72;4978053;28;20041;-63
2022/12/18 09:12:10;;;;;;;34.47;16.88;;;;;;;-4.08;100.00;102673.09;4969922;28;20063;-64
2022/12/18 09:14:35;;;;;;;34.80;18.00;;;;;;;-4.09;100.00;102666.16;4977659;28;20022;-63
2022/12/18 09:17:01;;;;;;;41.47;17.05;;;;;;;-4.15;100.00;102657.22;4970158;28;20043;-63
2022/12/18 09:19:26;;;;;;;26.42;15.77;;;;;;;-4.07;100.00;102661.09;4978675;28;20050;-63
2022/12/18 09:21:51;;;;;;;30.10;16.13;;;;;;;-3.99;100.00;102654.72;4974640;28;20514;-64
2022/12/18 09:24:17;;;;;;;30.75;17.70;;;;;;;-3.72;100.00;102640.69;4979666;28;20014;-65
2022/12/18 09:26:43;;;;;;;31.60;16.38;;;;;;;-3.71;100.00;102630.47;4974575;28;20034;-62
2022/12/18 09:29:09;;;;;;;33.47;16.50;;;;;;;-3.70;100.00;102627.06;4979301;28;20022;-63
2022/12/18 09:31:35;;;;;;;31.27;15.98;;;;;;;-3.72;100.00;102630.38;4975055;28;20042;-58
2022/12/18 09:34:00;;;;;;;30.85;17.50;;;;;;;-3.82;100.00;102621.28;4978526;28;20027;-63
2022/12/18 09:36:25;;;;;;;24.70;15.07;;;;;;;-3.76;100.00;102624.19;4975710;28;20029;-65
2022/12/18 09:38:51;;;;;;;30.02;16.50;;;;;;;-3.84;100.00;102636.63;4975297;28;20058;-57
2022/12/18 09:41:22;;;;;;;27.80;15.85;;;;;;;-3.74;100.00;102642.28;4978888;28;20042;-64
2022/12/18 09:43:51;;;;;;;29.50;16.55;;;;;;;-3.52;100.00;102640.88;4960398;28;20026;-64
2022/12/18 09:46:19;;;;;;;29.23;15.95;;;;;;;-3.52;100.00;102640.88;4967890;28;20419;-63
2022/12/18 09:48:48;;;;;;;28.23;15.52;;;;;;;-3.44;100.00;102634.44;4974222;28;20027;-62
2022/12/18 09:51:22;;;;;;;30.83;14.95;;;;;;;-3.47;100.00;102649.72;4957682;28;20026;-62
2022/12/18 09:54:02;;;;;;;35.45;15.88;;;;;;;-3.40;100.00;102656.13;4969904;28;20038;-61
2022/12/18 09:56:28;;;;;;;28.42;15.60;;;;;;;-3.18;100.00;102650.41;4948272;28;20448;-63
2022/12/18 09:59:02;;;;;;;27.95;15.05;;;;;;;-3.26;100.00;102644.84;4956829;28;20042;-62
2022/12/18 10:01:29;;;;;;;29.13;15.13;;;;;;;-3.21;100.00;102638.25;4969848;28;20109;-63
2022/12/18 10:03:54;;;;;;;31.38;15.75;;;;;;;-3.02;100.00;102622.81;4969606;28;20023;-56
2022/12/18 10:06:46;;;;;;;27.90;15.07;;;;;;;-3.21;100.00;102627.94;4952853;28;20046;-63
2022/12/18 10:09:34;;;;;;;24.80;14.10;;;;;;;-3.14;100.00;102623.94;4965387;28;20477;-63
2022/12/18 10:12:09;;;;;;;29.73;15.85;;;;;;;-3.07;100.00;102628.63;4967273;28;20049;-61
2022/12/18 10:14:37;;;;;;;25.35;14.90;;;;;;;-3.01;100.00;102612.56;4951628;28;20026;-58
2022/12/18 10:17:16;;;;;;;31.50;16.10;;;;;;;-2.94;100.00;102613.78;4968143;28;20038;-63
2022/12/18 10:19:54;;;;;;;27.38;14.23;;;;;;;-2.92;100.00;102599.28;4959962;28;20141;-63
2022/12/18 10:22:39;;;;;;;24.25;14.32;;;;;;;-2.77;100.00;102591.38;4951464;28;20114;-62
2022/12/18 10:25:24;;;;;;;28.83;14.93;;;;;;;-2.65;100.00;102587.66;4968949;28;20023;-63
2022/12/18 10:27:57;;;;;;;26.30;14.38;;;;;;;-2.56;100.00;102596.75;4952007;28;20437;-63
2022/12/18 10:30:24;;;;;;;30.60;14.23;;;;;;;-2.32;100.00;102592.72;4952514;28;20098;-60
2022/12/18 10:32:50;;;;;;;25.10;15.30;;;;;;;-2.35;100.00;102596.00;4969972;28;20055;-61
2022/12/18 10:35:26;;;;;;;26.30;13.98;;;;;;;-2.41;100.00;102587.97;4968931;28;20066;-62
2022/12/18 10:38:07;;;;;;;29.13;14.80;;;;;;;-2.40;100.00;102579.41;4952392;28;20055;-62
2022/12/18 10:40:47;;;;;;;29.10;14.70;;;;;;;-2.28;100.00;102574.81;4968905;28;20108;-63
2022/12/18 10:43:14;;;;;;;28.77;15.27;;;;;;;-2.17;100.00;102574.44;4969026;28;20492;-63
2022/12/18 10:45:40;;;;;;;24.42;14.40;;;;;;;-2.31;100.00;102579.88;4969828;28;20035;-63
2022/12/18 10:48:18;;;;;;;28.38;14.57;;;;;;;-2.17;100.00;102584.78;4969368;28;20023;-63
2022/12/18 10:50:47;;;;;;;26.10;13.77;;;;;;;-1.92;100.00;102583.34;4953080;28;20034;-62
2022/12/18 10:53:14;;;;;;;;;;;;;;;-1.84;100.00;102576.81;4956473;28;20037;-62
2022/12/18 10:55:44;;;;;;;23.23;12.23;;;;;;;-1.75;100.00;102580.66;4956117;28;20431;-61
2022/12/18 10:58:21;;;;;;;24.52;13.48;;;;;;;-1.80;100.00;102583.91;4955560;28;20073;-64
2022/12/18 11:01:03;;;;;;;31.02;14.98;;;;;;;-2.00;100.00;102569.19;4956347;28;20019;-60
2022/12/18 11:03:30;;;;;;;30.88;14.63;;;;;;;-1.96;100.00;102571.13;4970260;28;20497;-65
2022/12/18 11:06:17;;;;;;;25.25;14.55;;;;;;;-1.92;100.00;102573.03;4971524;28;20034;-62
2022/12/18 11:08:44;;;;;;;24.02;14.57;;;;;;;-1.88;100.00;102563.69;4955636;28;20027;-63
2022/12/18 11:11:20;;;;;;;25.27;14.57;;;;;;;-1.93;100.00;102561.78;4953931;28;20061;-61
2022/12/18 11:14:05;;;;;;;25.13;13.95;;;;;;;-1.96;100.00;102556.47;4971891;28;20596;-59